Flight Track Log - Related Links

Times and Time Zones

All times are in EDT time to prevent confusion due to time zone crossing. See the N960DL flight status page for this flight to view local times or setup timezone preferences in your user account.

Time Position Orientation Groundspeed Altitude Reporting Facility
EDT Latitude Longitude Course Direction KTS MPH feet Rate Location/Type
Thu 03:56:52 PM 43.5489 -70.4950 216° Southwest 279 321 5,100  Level Boston Center
Thu 03:57:00 PM 43.4489 -70.2855 235° Southwest  Level FlightAware Approximate
Thu 03:57:52 PM 43.4767 -70.5403 204° Southwest 279 321 7,700  Level Boston Center
Thu 03:58:00 PM 43.3829 -70.3974 226° Southwest  Level FlightAware Approximate
Thu 03:58:52 PM 43.4086 -70.5794 203° Southwest 279 321 11,300  Level Boston Center
Thu 03:59:00 PM 43.3121 -70.5039 232° Southwest  Level FlightAware Approximate
Thu 03:59:52 PM 43.3322 -70.6275 205° Southwest 286 329 12,500  Level Boston Center
Thu 04:00:00 PM 43.2412 -70.6088 216° Southwest  Level FlightAware Approximate
Thu 04:00:52 PM 43.2475 -70.6728 201° Southwest 333 383 14,100  Level Boston Center
Thu 04:01:00 PM 43.1563 -70.6938 216° Southwest  Level FlightAware Approximate
Thu 04:01:52 PM 43.1461 -70.7328 203° Southwest 365 420 17,700  Level Boston Center
Thu 04:02:00 PM 43.0714 -70.7786 216° Southwest  Level FlightAware Approximate
Thu 04:02:52 PM 43.0617 -70.7919 207° Southwest 358 412 19,400  Level Boston Center
Thu 04:03:52 PM 42.9708 -70.8567 208° Southwest 363 418 21,400 1,800 Climbing Boston Center
Thu 04:04:52 PM 42.8822 -70.9214 208° Southwest 363 418 23,000 1,700 Climbing Boston Center
Thu 04:05:52 PM 42.7869 -70.9831 205° Southwest 368 423 24,800 1,600 Climbing Boston Center
Thu 04:06:52 PM 42.6897 -71.0306 200° South 368 423 26,200 1,700 Climbing Boston Center
Thu 04:07:52 PM 42.6047 -71.0719 200° South 373 429 28,200 1,550 Climbing Boston Center
Thu 04:08:52 PM 42.5075 -71.1247 202° Southwest 373 429 29,300 1,100 Climbing Boston Center
Thu 04:09:52 PM 42.4439 -71.2247 229° Southwest 356 410 30,400 1,150 Climbing Boston Center
Thu 04:10:52 PM 42.4097 -71.3519 250° West 347 399 31,600 800 Climbing Boston Center
Thu 04:11:52 PM 42.3797 -71.4817 253° West 347 399 32,000 200 Climbing Boston Center
Thu 04:12:52 PM 42.3431 -71.6058 248° West 355 409 32,000  Level Boston Center
Thu 04:13:52 PM 42.3086 -71.7356 250° West 355 409 32,000  Level Boston Center
Thu 04:14:52 PM 42.2739 -71.8592 249° West 355 409 32,000  Level Boston Center
Thu 04:15:52 PM 42.2411 -71.9858 251° West 355 409 32,000  Level Boston Center
Thu 04:16:52 PM 42.2103 -72.1094 251° West 355 409 32,000  Level Boston Center
Thu 04:17:52 PM 42.1772 -72.2383 251° West 355 409 32,000  Level Boston Center
Thu 04:18:52 PM 42.1439 -72.3617 250° West 355 409 32,000  Level Boston Center
Thu 04:19:52 PM 42.1108 -72.4906 251° West 355 409 32,000  Level Boston Center
Thu 04:20:52 PM 42.0772 -72.6164 250° West 360 414 32,000  Level Boston Center
Thu 04:21:52 PM 42.0414 -72.7503 250° West 354 407 32,000  Level Boston Center
Thu 04:22:52 PM 42.0097 -72.8731 251° West 354 407 32,000  Level Boston Center
Thu 04:23:52 PM 41.9761 -72.9903 249° West 364 419 32,000  Level Boston Center
Thu 04:24:52 PM 41.9233 -73.0986 237° Southwest 356 410 32,000  Level Boston Center
Thu 04:25:52 PM 41.8458 -73.1731 216° Southwest 351 404 32,000  Level Boston Center
Thu 04:27:41 PM 41.7269 -73.3506 228° Southwest 343 395 32,000  Level New York Center
Thu 04:28:39 PM 41.6644 -73.4453 229° Southwest 343 395 32,000  Level New York Center
Thu 04:29:39 PM 41.6039 -73.5400 229° Southwest 343 395 32,000  Level New York Center
Thu 04:30:40 PM 41.5433 -73.6344 229° Southwest 343 395 32,000  Level New York Center
Thu 04:31:40 PM 41.4786 -73.7311 228° Southwest 343 395 32,000  Level New York Center
Thu 04:32:41 PM 41.4156 -73.8281 229° Southwest 350 403 32,000  Level New York Center
Thu 04:33:39 PM 41.3486 -73.9244 227° Southwest 355 409 32,000 -50 Level New York Center
Thu 04:34:40 PM 41.2814 -74.0261 229° Southwest 360 414 31,900  Descending New York Center
Thu 04:35:41 PM 41.2139 -74.1222 227° Southwest 360 414 32,000 50 Climbing New York Center
Thu 04:36:41 PM 41.1553 -74.2075 228° Southwest 360 414 32,000  Level New York Center
Thu 04:37:40 PM 41.0900 -74.3031 228° Southwest 360 414 32,000  Level New York Center
Thu 04:38:41 PM 41.0225 -74.3986 227° Southwest 360 414 32,000  Level New York Center
Thu 04:39:39 PM 40.9592 -74.4969 230° Southwest 360 414 32,000  Level New York Center
Thu 04:40:39 PM 40.8914 -74.5947 227° Southwest 360 414 32,000  Level New York Center
Thu 04:41:39 PM 40.8278 -74.6928 229° Southwest 360 414 32,000  Level New York Center
Thu 04:42:39 PM 40.7619 -74.7875 227° Southwest 360 414 32,000  Level New York Center
Thu 04:43:40 PM 40.6961 -74.8850 228° Southwest 360 414 32,000  Level New York Center
Thu 04:44:41 PM 40.6281 -74.9819 227° Southwest 360 414 32,000  Level New York Center
Thu 04:45:39 PM 40.5622 -75.0764 227° Southwest 360 414 32,000  Level New York Center
Thu 04:46:39 PM 40.4917 -75.1783 228° Southwest 366 421 32,000 -49 Level New York Center
Thu 04:47:41 PM 40.4236 -75.2722 226° Southwest 366 421 31,900  Descending New York Center
Thu 04:48:39 PM 40.3436 -75.3514 217° Southwest 366 421 32,000  Climbing New York Center
Thu 04:49:39 PM 40.2478 -75.3994 201° Southwest 358 412 31,900  Descending New York Center
Thu 04:50:40 PM 40.1617 -75.4725 213° Southwest 368 423 32,000  Climbing New York Center
Thu 04:51:41 PM 40.0972 -75.5711 230° Southwest 359 413 31,900  Descending New York Center
Thu 04:52:41 PM 40.0344 -75.6753 232° Southwest 365 420 32,000 51 Climbing New York Center
Thu 04:53:39 PM 39.9694 -75.7819 232° Southwest 376 433 32,000  Level New York Center
Thu 04:54:40 PM 39.9067 -75.8883 232° Southwest 376 433 32,000  Level New York Center
Thu 04:55:41 PM 39.8417 -75.9917 231° Southwest 376 433 32,000  Level New York Center
Thu 04:57:15 PM 39.7394 -76.1556 231° Southwest 372 428 32,000  Level Washington Center
Thu 04:58:15 PM 39.6700 -76.2575 229° Southwest 377 434 32,000  Level Washington Center
Thu 04:59:15 PM 39.6069 -76.3619 232° Southwest 377 434 32,000  Level Washington Center
Thu 05:01:00 PM 39.5039 -76.5414 233° Southwest  Level FlightAware Approximate
Thu 05:01:15 PM 39.4700 -76.5756 233° Southwest 377 434 32,000  Level Washington Center
Thu 05:03:15 PM 39.3369 -76.7856 231° Southwest 382 440 32,000  Level Washington Center
Thu 05:04:15 PM 39.2692 -76.8919 231° Southwest 382 440 32,000  Level Washington Center
Thu 05:05:15 PM 39.2033 -76.9950 231° Southwest 377 434 32,000 200 Level Washington Center
Thu 05:06:15 PM 39.1375 -77.0981 231° Southwest 377 434 32,400 500 Climbing Washington Center
Thu 05:07:15 PM 39.0714 -77.2011 230° Southwest 377 434 33,000 650 Climbing Washington Center
Thu 05:08:15 PM 38.9947 -77.3169 230° Southwest 377 434 33,700 500 Climbing Washington Center
Thu 05:09:15 PM 38.9394 -77.4036 231° Southwest 371 427 34,000 150 Climbing Washington Center
Thu 05:10:15 PM 38.8753 -77.5033 230° Southwest 371 427 34,000  Level Washington Center
Thu 05:11:15 PM 38.8069 -77.6083 230° Southwest 381 438 34,000  Level Washington Center
Thu 05:12:15 PM 38.7342 -77.7181 230° Southwest 381 438 34,000  Level Washington Center
Thu 05:13:15 PM 38.6697 -77.8200 231° Southwest 376 433 34,000  Level Washington Center
Thu 05:14:15 PM 38.6053 -77.9242 232° Southwest 371 427 34,000  Level Washington Center
Thu 05:15:15 PM 38.5425 -78.0283 232° Southwest 377 434 34,000  Level Washington Center
Thu 05:16:15 PM 38.4822 -78.1325 234° Southwest 377 434 34,000  Level Washington Center
Thu 05:17:15 PM 38.4236 -78.2367 234° Southwest 377 434 34,000  Level Washington Center
Thu 05:18:15 PM 38.3586 -78.3403 231° Southwest 377 434 34,000  Level Washington Center
Thu 05:19:15 PM 38.2978 -78.4464 234° Southwest 377 434 34,000  Level Washington Center
Thu 05:20:15 PM 38.2478 -78.5369 235° Southwest 372 428 34,000  Level Washington Center
Thu 05:21:15 PM 38.1844 -78.6428 233° Southwest 372 428 34,000  Level Washington Center
Thu 05:22:15 PM 38.1150 -78.7561 232° Southwest 377 434 34,000  Level Washington Center
Thu 05:23:15 PM 38.0536 -78.8592 233° Southwest 377 434 34,000  Level Washington Center
Thu 05:24:15 PM 37.9903 -78.9644 233° Southwest 377 434 34,000  Level Washington Center
Thu 05:25:15 PM 37.9269 -79.0642 231° Southwest 377 434 34,000  Level Washington Center
Thu 05:26:15 PM 37.8681 -79.1536 230° Southwest 377 434 34,000  Level Washington Center
Thu 05:27:15 PM 37.7983 -79.2528 228° Southwest 377 434 34,000  Level Washington Center
Thu 05:28:15 PM 37.7264 -79.3492 227° Southwest 377 434 34,000  Level Washington Center
Thu 05:29:15 PM 37.6481 -79.4528 226° Southwest 377 434 34,000  Level Washington Center
Thu 05:30:15 PM 37.5847 -79.5411 228° Southwest 377 434 34,000  Level Washington Center
Thu 05:31:15 PM 37.5081 -79.6472 228° Southwest 383 441 34,000  Level Washington Center
Thu 05:32:15 PM 37.4469 -79.7278 226° Southwest 378 435 34,000  Level Washington Center
Thu 05:33:15 PM 37.3744 -79.8308 229° Southwest 383 441 34,000  Level Washington Center
Thu 05:34:15 PM 37.3000 -79.9311 227° Southwest 378 435 34,000  Level Washington Center
Thu 05:35:15 PM 37.2297 -80.0264 227° Southwest 378 435 34,000  Level Washington Center
Thu 05:36:15 PM 37.1617 -80.1189 227° Southwest 378 435 34,000  Level Washington Center
Thu 05:37:29 PM 37.0833 -80.2247 227° Southwest 356 410 34,000  Level Atlanta Center
Thu 05:38:29 PM 37.0153 -80.3189 228° Southwest 356 410 34,000  Level Atlanta Center
Thu 05:39:29 PM 36.9453 -80.4106 226° Southwest 356 410 34,000  Level Atlanta Center
Thu 05:40:29 PM 36.8689 -80.5128 227° Southwest 356 410 34,000  Level Atlanta Center
Thu 05:41:29 PM 36.7986 -80.6092 228° Southwest 356 410 34,000  Level Atlanta Center
Thu 05:42:29 PM 36.7403 -80.6867 227° Southwest 356 410 34,000  Level Atlanta Center
Thu 05:43:29 PM 36.6697 -80.7750 225° Southwest 351 404 34,000  Level Atlanta Center
Thu 05:44:29 PM 36.6033 -80.8708 229° Southwest 357 411 34,000  Level Atlanta Center
Thu 05:45:29 PM 36.5306 -80.9617 225° Southwest 363 418 34,000  Level Atlanta Center
Thu 05:46:29 PM 36.4619 -81.0547 228° Southwest 363 418 34,000  Level Atlanta Center
Thu 05:47:29 PM 36.3914 -81.1475 227° Southwest 363 418 34,000  Level Atlanta Center
Thu 05:48:29 PM 36.3206 -81.2403 227° Southwest 369 425 34,000  Level Atlanta Center
Thu 05:49:29 PM 36.2497 -81.3356 227° Southwest 376 433 34,000  Level Atlanta Center
Thu 05:50:29 PM 36.1703 -81.4358 226° Southwest 376 433 34,000  Level Atlanta Center
Thu 05:51:29 PM 36.0994 -81.5306 227° Southwest 382 440 34,000  Level Atlanta Center
Thu 05:52:29 PM 36.0264 -81.6306 228° Southwest 389 448 34,000  Level Atlanta Center
Thu 05:53:29 PM 35.9550 -81.7250 227° Southwest 381 438 34,000  Level Atlanta Center
Thu 05:54:29 PM 35.8797 -81.8194 225° Southwest 387 445 34,000  Level Atlanta Center
Thu 05:55:29 PM 35.8042 -81.9161 226° Southwest 387 445 34,000  Level Atlanta Center
Thu 05:56:29 PM 35.7306 -82.0075 225° Southwest 378 435 34,000  Level Atlanta Center
Thu 05:57:29 PM 35.6572 -82.1039 227° Southwest 383 441 34,000  Level Atlanta Center
Thu 05:58:29 PM 35.5792 -82.1978 224° Southwest 383 441 34,000  Level Atlanta Center
Thu 05:59:29 PM 35.5036 -82.2939 226° Southwest 383 441 34,000  Level Atlanta Center
Thu 06:00:29 PM 35.4211 -82.3797 220° Southwest 388 447 34,000 -500 Level Atlanta Center
Thu 06:01:29 PM 35.3411 -82.4703 223° Southwest 394 453 33,000  Descending Atlanta Center
Thu 06:02:29 PM 35.2608 -82.5608 223° Southwest 394 453 34,000 -1,650 Climbing Atlanta Center
Thu 06:03:29 PM 35.1783 -82.6489 221° Southwest 394 453 29,700 -3,000 Descending Atlanta Center
Thu 06:04:29 PM 35.0917 -82.7417 221° Southwest 404 465 28,000 -1,650 Descending Atlanta Center
Thu 06:05:29 PM 35.0050 -82.8394 223° Southwest 417 480 26,400 -1,250 Descending Atlanta Center
Thu 06:06:29 PM 34.9225 -82.9317 223° Southwest 417 480 25,500 -950 Descending Atlanta Center
Thu 06:07:29 PM 34.8397 -83.0239 222° Southwest 406 467 24,500 -750 Descending Atlanta Center
Thu 06:08:29 PM 34.7550 -83.1108 220° Southwest 412 474 24,000 -250 Descending Atlanta Center
Thu 06:09:29 PM 34.6700 -83.2053 222° Southwest 407 468 24,000  Level Atlanta Center
Thu 06:10:29 PM 34.5872 -83.2994 223° Southwest 412 474 24,000 -450 Level Atlanta Center
Thu 06:11:29 PM 34.5022 -83.3911 222° Southwest 412 474 23,100 -1,950 Descending Atlanta Center
Thu 06:12:29 PM 34.4169 -83.4822 221° Southwest 412 474 20,100 -2,700 Descending Atlanta Center
Thu 06:13:29 PM 34.3444 -83.5608 222° Southwest 401 461 17,700 -2,550 Descending Atlanta Center
Thu 06:14:29 PM 34.2675 -83.6467 223° Southwest 391 450 15,000 -2,700 Descending Atlanta Center
Thu 06:15:29 PM 34.1883 -83.7300 221° Southwest 386 444 12,300 -1,500 Descending Atlanta Center
Thu 06:16:29 PM 34.1133 -83.8131 223° Southwest 378 435 12,000 -150 Descending Atlanta Center
Thu 06:17:29 PM 34.0489 -83.8858 223° Southwest 345 397 12,000 -788 Level Atlanta Center
Thu 06:18:08 PM 34.0000 -83.9333 219° Southwest 281 323 10,700 -1,212 Descending Atlanta TRACON
Thu 06:19:08 PM 33.9500 -84.0000 228° Southwest 284 327 10,000 -550 Descending Atlanta TRACON
Thu 06:20:08 PM 33.8833 -84.0500 212° Southwest 280 322 9,600 -593 Descending Atlanta TRACON
Thu 06:20:29 PM 33.8653 -84.0789 233° Southwest 287 330 9,200 -1,630 Descending Atlanta Center
Thu 06:21:29 PM 33.7942 -84.1189 205° Southwest 281 323 7,400 -1,862 Descending Atlanta Center
Thu 06:21:56 PM 33.7667 -84.1333 204° Southwest 281 323 6,500 -1,613 Descending Atlanta TRACON
Thu 06:23:02 PM 33.6833 -84.1833 207° Southwest 250 288 4,900 -1,455 Descending Atlanta TRACON

Login

Don't have an account? Register now (free) for customized features, flight alerts, and more!